Tiempo atmosférico en la estación meteorológica de Sa Pobla, Illes Balears (40 m.)



Fecha
DESCASC
Temp. máxima en grados centígrados (hora)
DESCASC
Temp. mínima en grados centígrados (hora)
DESCASC
Temp. media en grados centígrados
DESCASC
Racha de viento máxima en m/sg (hora)
DESCASC
Velocidad máxima media en intervalos de 10 minutos(hora)
DESCASC
Precipitaciones diarias en mm
DESCASC
Precipitaciones de 00:00 a 06:00 en mm
DESCASC
Precipitaciones de 06:00 a 12:00 en mm
DESCASC
Precipitaciones de 12:00 a 18:00 en mm
DESCASC
Precipitaciones de 18:00 a 24:00 en mm
DESCASC
05-04-2020 19.1 (15:30) 4.2 (06:10) 11.7 7.5 (15:10) 4.17 (16:20) 0 0 0 0 0
04-04-2020 19.1 (15:40) 4.6 (07:40) 11.9 6.39 (13:50) 3.89 (14:00) 0 0 0 0 0
03-04-2020 16.4 (17:20) 7.7 (23:59) 12 13.61 (12:00) 8.89 (12:10) 3 2.8 0.2 0 0
02-04-2020 17.7 (11:20) 10.2 (00:00) 14 10.83 (16:30) 6.39 (16:20) 30.2 0 0 28.4 1.8
01-04-2020 19.9 (16:30) 12.7 (00:00) 16.3 12.78 (14:10) 6.39 (13:30) 8.2 0 0 8.2 0
31-03-2020 17 (14:50) 11.4 (00:00) 14.2 8.06 (18:20) 5 (18:00) 7.4 0.2 0 7.2 0
30-03-2020 16.9 (17:20) 6.9 (00:00) 11.9 6.11 (17:00) 4.17 (16:50) 0.8 0 0 0.8 0
29-03-2020 20.8 (15:30) 5.6 (00:00) 13.2 6.94 (17:30) 4.72 (17:30) 0.2 0 0 0.2 0
28-03-2020 16.4 (14:40) 7 (00:00) 11.7 8.33 (14:50) 5.83 (16:30) 1.2 0 1 0.2 0
27-03-2020 15 (14:00) 2.8 (00:00) 8.9 9.44 (21:20) 5.56 (19:00) 0.2 0 0.2 0 0
26-03-2020 11.1 (10:10) 4.6 (00:00) 7.9 9.17 (12:30) 5.83 (12:20) 12 0 0.2 6 5.8
25-03-2020 14.2 (12:50) 4.6 (00:00) 9.4 11.67 (14:10) 7.22 (14:10) 0 0 0 0 0
24-03-2020 15.6 (13:00) 10 (00:00) 12.8 14.17 (09:10) 7.5 (09:10) 0.4 0 0.2 0 0.2
23-03-2020 18.5 (13:30) 7.2 (00:00) 12.8 10 (16:00) 6.11 (16:00) 0 0 0 0 0
22-03-2020 15.2 (10:10) 8.1 (03:40) 11.7 7.22 (08:20) 4.72 (08:40) 0 0 0 0 0
21-03-2020 18.6 (13:50) 10.6 (00:00) 14.6 9.44 (10:20) 5.83 (10:10) 0 0 0 0 0
20-03-2020 17.9 (13:00) 5.3 (00:00) 11.6 11.11 (12:00) 6.67 (14:10) 0 0 0 0 0
19-03-2020 18.3 (13:20) 7.2 (00:00) 12.7 7.78 (13:00) 4.44 (17:40) 0 0 0 0 0
18-03-2020 17.6 (14:00) 10.5 (00:00) 14.1 8.61 (14:00) 5.83 (14:50) 0 0 0 0 0
17-03-2020 17.7 (13:40) 13.8 (00:00) 15.8 9.72 (06:10) 6.39 (06:10) 0 0 0 0 0
16-03-2020 17.9 (16:20) 7.7 (00:00) 12.8 9.17 (16:30) 6.39 (16:30) 0 0 0 0 0
15-03-2020 19.8 (16:00) 5.7 (00:00) 12.7 6.67 (16:30) 4.44 (17:40) 0 0 0 0 0
14-03-2020 19.1 (15:00) 9.1 (00:00) 14.1 7.22 (15:40) 4.17 (15:10) 0 0 0 0 0
13-03-2020 18.9 (13:50) 7.3 (04:50) 13.1 10.56 (12:30) 5.83 (10:50) 0 0 0 0 0
12-03-2020 25.9 (14:50) 7.5 (00:00) 16.7 7.22 (14:50) 3.89 (11:50) 0 0 0 0 0
11-03-2020 23.8 (15:20) 6.9 (00:00) 15.3 6.94 (15:40) 4.44 (15:40) 0 0 0 0 0
10-03-2020 18.4 (14:00) 6.8 (00:00) 12.6 9.72 (18:00) 5.28 (15:40) 0 0 0 0 0
09-03-2020 17.3 (11:30) 6.6 (00:00) 11.9 13.33 (10:40) 6.94 (10:40) 0 0 0 0 0

Gráficas

Temp. máximas Temp. mínimas Temp. medias Precipitaciones Rachas de viento máximas Velocidades máximas media en intervalos de 10 minutos

Datos horarios

Fecha y hora oficial Temperatura (ºC) Velocidad del viento (km/h) Dirección del viento Racha (km/h) Dirección de racha Precipitación (mm) Presión (hPa) Tendencia (hPa) Humedad (%)
2020-04-07 23:00:00 12.5 2 Oeste 5 Noroeste 0 1023.4 1.3 75
2020-04-07 22:00:00 13.8 3 Noroeste 10 Norte 0 1023.1 1.2 69
2020-04-07 21:00:00 14.8 7 Norte 15 Nordeste 0 1022.5 0.8 64
2020-04-07 20:00:00 15.9 13 Nordeste 23 Nordeste 0 1022.1 0.3 60
2020-04-07 19:00:00 17.9 15 Nordeste 26 Norte 0 1021.9 -0.4 47
2020-04-07 18:00:00 18.7 17 Nordeste 30 Norte 0 1021.7 -1 47
2020-04-07 17:00:00 19.3 14 Nordeste 26 Nordeste 0 1021.8 -1.1 45
2020-04-07 16:00:00 18.7 12 Este 25 Este 0 1022.3 -0.8 47
2020-04-07 15:00:00 19.3 13 Nordeste 22 Nordeste 0 1022.7 -0.8 42
2020-04-07 14:00:00 18.3 13 Nordeste 24 Nordeste 0 1022.9 -0.7 53
2020-04-07 13:00:00 18.3 7 Nordeste 19 Nordeste 0 1023.1 -0.1 56
2020-04-07 12:00:00 17.5 3 Sur 12 Nordeste 0 1023.5 0.5 53
2020-04-07 11:00:00 16.1 5 Nordeste 11 Nordeste 0 1023.6 1 60
2020-04-07 10:00:00 13.9 2 Oeste 6 Sur 0 1023.2 1.1 62
2020-04-07 09:00:00 10 4 Sur 7 Sur 0 1023 1.1 81
2020-04-07 08:00:00 8.4 5 Sur 9 Sudoeste 0 1022.6 0.6 86
2020-04-07 07:00:00 8.5 4 Sudoeste 8 Sudoeste 0 1022.1 -0.3 86
2020-04-07 06:00:00 8.5 5 Sur 8 Sur 0 1021.9 -0.6 86
2020-04-07 05:00:00 9.2 6 Sudoeste 8 Sudoeste 0 1022 -0.6 83
2020-04-07 04:00:00 8.4 6 Sur 9 Sudoeste 0 1022.4 0.1 86
2020-04-07 03:00:00 8.5 5 Sur 8 Sur 0 1022.5 0.1 87
2020-04-07 02:00:00 9 5 Sur 7 Sudoeste 0 1022.6 0.1 84
2020-04-07 01:00:00 10.5 5 Oeste 8 Oeste 0 1022.3 0 76
2020-04-07 00:00:00 10.9 4 Sur 7 Sur 0 1022.4 1 76
2020-04-06 23:00:00 11.6 4 Sur 8 Sur 0 1022.5 1.8 73
2020-04-06 22:00:00 12.6 4 Sur 9 Sur 0 1022.3 2 68
2020-04-06 21:00:00 14.1 5 Sudeste 13 Sudeste 0 1021.4 1.3 57
2020-04-06 20:00:00 16.4 9 Sur 27 Sudeste 0 1020.7 0.6 47
2020-04-06 19:00:00 18.9 8 Norte 21 Norte 0 1020.3 0.1 49
2020-04-06 18:00:00 19.3 14 Norte 23 Nordeste 0 1020.1 -0.3 45
2020-04-06 17:00:00 20 17 Nordeste 26 Nordeste 0 1020.1 -0.6 44
2020-04-06 16:00:00 20.9 7 Sudoeste 24 Sudeste 0 1020.2 -0.5 36
2020-04-06 15:00:00 20.8 12 Sudeste 23 Sudeste 0 1020.4 -0.4 37
2020-04-06 14:00:00 19.8 8 Sudeste 25 Sudeste 0 1020.7 0.1 39
2020-04-06 13:00:00 19.1 10 Sur 22 Sudoeste 0 1020.7 1 42
2020-04-06 12:00:00 18.3 8 Sur 27 Sur 0 1020.8 1.3 42
2020-04-06 11:00:00 16.9 5 Sur 12 Sur 0 1020.6 1.7 62
2020-04-06 10:00:00 14.5 4 Sudeste 8 Sur 0 1019.7 1.2 72
2020-04-06 09:00:00 9.5 4 Sur 9 Sur 0 1019.5 1.4 86
2020-04-06 08:00:00 6.3 6 Sur 11 Sur 0 1018.9 1 93
2020-04-06 07:00:00 6.6 6 Sur 10 Sur 0 1018.5 0.6 93
2020-04-06 06:00:00 7.1 6 Sur 9 Sur 0 1018.1 -0.2 91
2020-04-06 05:00:00 7.5 8 Sur 10 Sur 0 1017.9 -0.4 91
2020-04-06 04:00:00 8.5 4 Sudoeste 7 Sur 0 1017.9 -0.2 91
2020-04-06 03:00:00 8.9 4 Sur 8 Sur 0 1018.3 0.4 90
2020-04-06 02:00:00 9.7 4 Sudoeste 8 Sudoeste 0 1018.3 0.8 88
2020-04-06 01:00:00 10.1 2 Sur 8 Oeste 0 1018.1 1 84
2020-04-06 00:00:00 11.1 0 Calma 7 Oeste 0 1017.9 1.3 85
2020-04-05 23:00:00 11.8 4 Oeste 10 Sur 0 1017.5 1.1 79
2020-04-05 22:00:00 12.7 4 Sudoeste 7 Sudeste 0 1017.1 1 73
2020-04-05 21:00:00 13.8 6 Sur 13 Sudeste 0 1016.6 0.7 64
2020-04-05 20:00:00 15.7 6 Sur 14 Sudeste 0 1016.4 0.3 52
2020-04-05 19:00:00 16.7 2 Este 19 Nordeste 0 1016.1 -0.2 56
2020-04-05 18:00:00 16.9 12 Nordeste 21 Nordeste 0 1015.9 -1 60
2020-04-05 17:00:00 17.6 14 Nordeste 24 Nordeste 0 1016.1 -1.2 57
2020-04-05 16:00:00 18.3 13 Nordeste 27 Nordeste 0 1016.3 -1.4 49
2020-04-05 15:00:00 18.1 13 Nordeste 24 Nordeste 0 1016.9 -1.1 52
2020-04-05 14:00:00 18.3 5 Sudeste 19 Este 0 1017.3 -0.8 52
2020-04-05 13:00:00 17.3 7 Nordeste 15 Nordeste 0 1017.7 -0.3 55
2020-04-05 12:00:00 16.3 6 Nordeste 14 Nordeste 0 1018 0.4 52
2020-04-05 11:00:00 14.7 7 Nordeste 12 Norte 0 1018.1 1 71
2020-04-05 10:00:00 13.5 2 Sur 9 Sur 0 1018 1.5 72
2020-04-05 09:00:00 7.9 4 Sur 10 Sudoeste 0 1017.6 1.1 88
2020-04-05 08:00:00 4.6 5 Sur 10 Sur 0 1017.1 0.6 94
2020-04-05 07:00:00 4.6 5 Sudoeste 9 Sur 0 1016.5 -0.4 94
2020-04-05 06:00:00 4.8 6 Sur 10 Sudoeste 0 1016.5 -0.8 93
2020-04-05 05:00:00 5.7 6 Sudoeste 10 Sudoeste 0 1016.5 -1.2 93
2020-04-05 04:00:00 5.8 6 Sur 9 Sur 0 1016.9 -0.9 93
2020-04-05 03:00:00 6.6 7 Sur 10 Sur 0 1017.3 -0.5 92
2020-04-05 02:00:00 7.4 5 Sudoeste 9 Sudoeste 0 1017.7 0.1 91
2020-04-05 01:00:00 7.7 5 Sur 8 Sudoeste 0 1017.8 0.3 90
2020-04-05 00:00:00 8.8 4 Sudoeste 8 Sudoeste 0 1017.8 0.9 87
2020-04-04 23:00:00 8.9 3 Sur 7 Sudoeste 0 1017.6 1.2 90
2020-04-04 22:00:00 10.4 0 Calma 4 Noroeste 0 1017.5 1.3 87
2020-04-04 21:00:00 12.1 2 Norte 7 Nordeste 0 1016.9 1.1 79
2020-04-04 20:00:00 14.5 5 Nordeste 16 Nordeste 0 1016.4 0.5 65
2020-04-04 19:00:00 16.8 9 Nordeste 19 Nordeste 0 1016.2 0 48
2020-04-04 18:00:00 17.7 11 Nordeste 21 Este 0 1015.8 -0.8 44
2020-04-04 17:00:00 18.5 12 Nordeste 22 Este 0 1015.9 -0.9 37
2020-04-04 16:00:00 18.5 12 Nordeste 22 Nordeste 0 1016.2 -0.8 47
2020-04-04 15:00:00 18.5 10 Nordeste 21 Nordeste 0 1016.6 -0.5 45
2020-04-04 14:00:00 18.1 14 Nordeste 23 Nordeste 0 1016.8 -0.3 43
2020-04-04 13:00:00 18.1 7 Nordeste 20 Nordeste 0 1017 0.4 42
2020-04-04 12:00:00 17.5 6 Nordeste 16 Norte 0 1017.1 0.8 43
2020-04-04 11:00:00 16.3 4 Este 9 Sudeste 0 1017.1 1.1 53
2020-04-04 10:00:00 12.9 4 Sur 8 Sur 0 1016.6 1.2 70
2020-04-04 09:00:00 8.3 5 Sur 9 Sur 0 1016.3 1.2 86
2020-04-04 08:00:00 5 6 Sur 9 Sudoeste 0 1016 0.8 92
2020-04-04 07:00:00 5 5 Sudoeste 9 Sudoeste 0 1015.4 0.2 92
2020-04-04 06:00:00 5.3 6 Sur 10 Sudoeste 0 1015.1 -0.1 91
2020-04-04 05:00:00 5.7 5 Sudoeste 11 Sudoeste 0 1015.2 -0.1 91
2020-04-04 04:00:00 6.2 8 Sur 10 Sur 0 1015.2 -0.2 91
2020-04-04 03:00:00 6.3 6 Sur 12 Sur 0 1015.2 0.1 90
2020-04-04 02:00:00 6.7 4 Sur 9 Sur 0 1015.3 0.5 88
2020-04-04 01:00:00 7.2 5 Sur 10 Sur 0 1015.4 1 88
2020-04-04 00:00:00 7.9 6 Sudoeste 11 Oeste 0 1015.1 1.4 84
2020-04-03 23:00:00 8.7 5 Sudoeste 11 Oeste 0 1014.8 1.6 80
2020-04-03 22:00:00 10.2 3 Norte 8 Norte 0 1014.4 1.7 82
2020-04-03 21:00:00 11.5 4 Norte 13 Norte 0 1013.7 1.3 74
2020-04-03 20:00:00 13.8 10 Norte 17 Norte 0 1013.2 1 62
2020-04-03 19:00:00 15.2 11 Norte 19 Nordeste 0 1012.7 0.8 55
2020-04-03 18:00:00 15.8 13 Nordeste 24 Norte 0 1012.4 0.3 61
2020-04-03 17:00:00 15.7 15 Norte 28 Nordeste 0 1012.2 0.1 56
2020-04-03 16:00:00 15.2 18 Nordeste 32 Norte 0 1011.9 0 67
2020-04-03 15:00:00 15.1 22 Norte 38 Norte 0 1012.1 0.6 69
2020-04-03 14:00:00 15.1 25 Norte 44 Norte 0 1012.1 0.8 70
2020-04-03 13:00:00 15.9 24 Norte 49 Norte 0 1011.9 1.5 70
2020-04-03 12:00:00 14.8 30 Norte 49 Norte 0 1011.5 1.9 65
2020-04-03 11:00:00 13.9 23 Norte 44 Norte 0 1011.3 2.4 70
2020-04-03 10:00:00 13.6 24 Norte 41 Norte 0 1010.4 2.1 70
2020-04-03 09:00:00 13.3 23 Norte 42 Norte 0 1009.6 1.9 70
2020-04-03 08:00:00 12.9 21 Norte 39 Nordeste 0 1008.9 1.5 72
2020-04-03 07:00:00 12.7 19 Norte 41 Norte 0.2 1008.3 0.9 73
2020-04-03 06:00:00 12.9 25 Norte 43 Norte 0 1007.7 0.4 75
2020-04-03 05:00:00 12.5 20 Norte 33 Norte 0 1007.4 -0.1 81
2020-04-03 04:00:00 12.3 18 Norte 39 Norte 0 1007.4 -0.4 85
2020-04-03 03:00:00 12 19 Norte 35 Norte 2.2 1007.3 -0.6 92
2020-04-03 02:00:00 11.7 17 Norte 33 Norte 0.6 1007.5 -0.2 91
2020-04-03 01:00:00 12 15 Norte 30 Norte 0 1007.8 0.6 88
2020-04-03 00:00:00 12.3 17 Norte 32 Norte 0 1007.9 1.5 86
2020-04-02 23:00:00 12.6 14 Norte 29 Norte 0.2 1007.7 1.6 87
2020-04-02 22:00:00 12.8 16 Norte 30 Nordeste 1 1007.2 1.5 90
2020-04-02 21:00:00 12.9 13 Norte 23 Norte 0.4 1006.4 1.1 92
2020-04-02 20:00:00 13.2 16 Norte 33 Norte 0 1006.1 1.2 88
2020-04-02 19:00:00 13.3 22 Nordeste 37 Nordeste 0.2 1005.7 0.5 90
2020-04-02 18:00:00 13.5 16 Nordeste 25 Nordeste 1 1005.3 0.3 92
2020-04-02 17:00:00 13.2 19 Norte 39 Norte 0.2 1004.9 -0.2 88
2020-04-02 16:00:00 14.3 18 Norte 32 Noroeste 0.2 1005.2 -0.4 84
2020-04-02 15:00:00 13.6 6 Norte 18 Nordeste 0.6 1005 0 77
2020-04-02 14:00:00 11.7 2 Norte 21 Oeste 8 1005.1 0.2 91
2020-04-02 13:00:00 11.5 9 Oeste 29 Sudeste 18.4 1005.6 0.7 91
2020-04-02 12:00:00 16.5 6 Sur 15 Sudeste 0 1005 0.6 63
2020-04-02 11:00:00 17.2 7 Sur 12 Sudeste 0 1004.9 0.2 73
2020-04-02 10:00:00 13.5 5 Sudeste 10 Sudeste 0 1004.9 0.2 95
2020-04-02 09:00:00 10.8 2 Noroeste 9 Norte 0 1004.4 -0.4 96
2020-04-02 08:00:00 11.3 4 Sur 7 Sur 0 1004.7 -0.5 96
2020-04-02 07:00:00 11.2 5 Sudoeste 12 Sudeste 0 1004.7 -1.2 96
2020-04-02 06:00:00 11.3 5 Sur 10 Sur 0 1004.8 -1.7 96
2020-04-02 05:00:00 11.3 6 Sur 9 Sur 0 1005.2 -1.6 96
2020-04-02 04:00:00 11.7 5 Sur 11 Sur 0 1005.9 -1.4 95
2020-04-02 03:00:00 11.7 5 Sur 15 Sudoeste 0 1006.5 -1.2 94
2020-04-02 02:00:00 12.2 5 Sur 10 Sur 0 1006.8 -1.1 94
2020-04-02 01:00:00 12.7 4 Sur 10 Sudoeste 0 1007.3 -0.5 94
2020-04-02 00:00:00 12.9 2 Sur 13 Sur 0 1007.7 0.4 92
2020-04-01 23:00:00 13.8 6 Sudoeste 13 Sudoeste 0 1007.9 1 91
2020-04-01 22:00:00 13.7 6 Sudoeste 14 Sudoeste 0 1007.8 1.4 90
2020-04-01 21:00:00 14.7 8 Sudoeste 18 Sudoeste 0 1007.3 0.9 86
2020-04-01 20:00:00 15.6 7 Sudoeste 25 Sudoeste 0 1006.9 0.6 81
2020-04-01 19:00:00 16.9 11 Sudoeste 29 Sudoeste 0 1006.4 0 73
2020-04-01 18:00:00 18.4 15 Sudoeste 31 Sudoeste 0 1006.4 -0.6 68
2020-04-01 17:00:00 19.1 15 Sudoeste 32 Sudoeste 0 1006.3 -0.8 62
2020-04-01 16:00:00 18.4 6 Nordeste 12 Nordeste 0 1006.4 -0.6 75
2020-04-01 15:00:00 15.2 10 Nordeste 46 Norte 6.8 1007 -1.1 80
2020-04-01 14:00:00 14.1 16 Noroeste 44 Noroeste 1.4 1007.1 -1.6 83
2020-04-01 13:00:00 19 22 Este 31 Este 0 1007 -1.6 71
2020-04-01 12:00:00 18 17 Sudeste 26 Sudeste 0 1008.1 -0.2 75
2020-04-01 11:00:00 16.5 17 Sudeste 25 Sudeste 0 1008.7 0.8 82
2020-04-01 10:00:00 14.6 5 Sur 10 Oeste 0 1008.6 0.7 86
2020-04-01 09:00:00 14.7 5 Norte 13 Este 0 1008.3 0 84
2020-04-01 08:00:00 13.9 6 Nordeste 17 Nordeste 0 1007.9 -0.8 86
2020-04-01 07:00:00 13.6 8 Nordeste 13 Nordeste 0 1007.9 -0.8 86
2020-04-01 06:00:00 14 5 Nordeste 12 Nordeste 0 1008.3 -0.5 84
2020-04-01 05:00:00 13.9 5 Nordeste 9 Nordeste 0 1008.7 -0.1 86
2020-04-01 04:00:00 14.1 4 Nordeste 12 Este 0 1008.7 -0.3 83
2020-04-01 03:00:00 14.4 6 Nordeste 21 Este 0 1008.8 -0.4 83
2020-04-01 02:00:00 14.5 6 Nordeste 22 Nordeste 0 1008.8 -0.3 85
2020-04-01 01:00:00 14.4 7 Nordeste 14 Nordeste 0 1009 0.5 87
2020-04-01 00:00:00 14.6 8 Nordeste 21 Este 0 1009.2 1.4 86
2020-03-31 23:00:00 14.4 7 Nordeste 17 Nordeste 0 1009.1 1.8 87
2020-03-31 22:00:00 14.4 8 Nordeste 17 Nordeste 0 1008.5 1.5 88
2020-03-31 21:00:00 14.5 11 Norte 17 Nordeste 0 1007.8 1.1 90
2020-03-31 20:00:00 14.7 10 Nordeste 22 Nordeste 0 1007.3 0.4 89
2020-03-31 19:00:00 14.7 13 Nordeste 29 Nordeste 0 1007 -0.1 90
2020-03-31 18:00:00 15.1 18 Nordeste 27 Nordeste 0.2 1006.7 -0.9 89
2020-03-31 17:00:00 14.4 14 Nordeste 20 Nordeste 6 1006.9 -0.5 93
2020-03-31 16:00:00 14.9 8 Nordeste 24 Este 1 1007.1 -0.7 87
2020-03-31 15:00:00 16.7 9 Nordeste 23 Este 0 1007.6 -0.9 71
2020-03-31 14:00:00 16.3 12 Este 24 Este 0 1007.4 -0.7 72
2020-03-31 13:00:00 15.9 13 Nordeste 26 Este 0 1007.8 -0.3 74
2020-03-31 12:00:00 15.5 11 Nordeste 23 Nordeste 0 1008.5 0.5 77
2020-03-31 11:00:00 15.8 12 Nordeste 27 Nordeste 0 1008.1 0.2 75
2020-03-31 10:00:00 14.6 15 Nordeste 28 Nordeste 0 1008.1 0.6 84
2020-03-31 09:00:00 13.8 12 Nordeste 21 Nordeste 0 1008 0.3 89
2020-03-31 08:00:00 13.1 13 Nordeste 26 Nordeste 0 1007.9 -0.3 91
2020-03-31 07:00:00 12.8 15 Nordeste 27 Nordeste 0 1007.5 -1 92
2020-03-31 06:00:00 13 12 Nordeste 22 Nordeste 0 1007.7 -1.3 94
2020-03-31 05:00:00 12.2 5 Noroeste 12 Noroeste 0.2 1008.2 -0.6 93
2020-03-31 04:00:00 11.9 6 Noroeste 10 Oeste 0 1008.5 -0.9 94
2020-03-31 03:00:00 11.7 3 Oeste 8 Noroeste 0 1009 -0.3 92
2020-03-31 02:00:00 11.9 4 Norte 7 Norte 0 1008.8 -0.7 92
2020-03-31 01:00:00 12 3 Sur 10 Sur 0 1009.4 0.1 91
2020-03-31 00:00:00 11.6 3 Sur 8 Sudoeste 0 1009.3 0.7 91
2020-03-30 23:00:00 11.9 2 Oeste 8 Sudoeste 0 1009.5 1.4 90
2020-03-30 22:00:00 12.7 2 Sur 12 Sudeste 0 1009.3 1.5 87
2020-03-30 21:00:00 14 2 Este 13 Norte 0 1008.6 0.7 88
2020-03-30 20:00:00 15.2 6 Norte 12 Nordeste 0 1008.1 0.2 84
2020-03-30 19:00:00 16.2 6 Nordeste 13 Este 0 1007.8 -0.3 77
2020-03-30 18:00:00 15.9 7 Nordeste 19 Nordeste 0 1007.9 -0.6 78
2020-03-30 17:00:00 16.4 14 Nordeste 22 Nordeste 0 1007.9 -1 76
2020-03-30 16:00:00 16.2 8 Norte 20 Norte 0 1008.1 -1.2 75
2020-03-30 15:00:00 14.9 14 Norte 21 Norte 0 1008.5 -1.2 82
2020-03-30 14:00:00 13.9 13 Nordeste 19 Nordeste 0 1008.9 -1 81
2020-03-30 13:00:00 13.5 6 Noroeste 21 Noroeste 0.8 1009.3 -0.2 82
2020-03-30 12:00:00 15.5 7 Sudeste 15 Sur 0 1009.7 0.3 81
2020-03-30 11:00:00 14.4 7 Sudeste 12 Sudeste 0 1009.9 0.7 86
2020-03-30 10:00:00 11.8 5 Sur 9 Sur 0 1009.5 0.5 91
2020-03-30 09:00:00 8.9 4 Sudoeste 8 Sudoeste 0 1009.4 0.3 91
2020-03-30 08:00:00 6.9 3 Oeste 8 Sudoeste 0 1009.2 -0.2 93
2020-03-30 07:00:00 7.4 4 Sudoeste 6 Sudoeste 0 1009 -0.9 94
2020-03-30 06:00:00 8.5 4 Sudoeste 10 Sudoeste 0 1009.1 -1.1 93
2020-03-30 05:00:00 8.4 3 Sur 7 Sur 0 1009.4 -1 91
2020-03-30 04:00:00 8.7 0 Calma 13 Oeste 0 1009.9 -0.9 88
2020-03-30 03:00:00 11 6 Sudoeste 17 Sudoeste 0 1010.2 -0.8 89
2020-03-30 02:00:00 11.2 9 Sur 15 Sur 0 1010.4 -0.8 90
2020-03-30 01:00:00 11.2 9 Sur 17 Sudeste 0 1010.8 -0.3 89
2020-03-30 00:00:00 11.7 10 Sur 18 Sur 0 1011 0.4 88
2020-03-29 23:00:00 12.4 9 Sur 17 Sudoeste 0 1011.2 1.3 86
2020-03-29 22:00:00 12.6 9 Sur 20 Sudoeste 0 1011.1 1.3 84
2020-03-29 21:00:00 14.1 11 Sudoeste 24 Sudoeste 0 1010.6 0.6 73
2020-03-29 20:00:00 16.4 7 Sudoeste 18 Sur 0 1009.9 -0.4 62
2020-03-29 19:00:00 18.3 11 Sur 21 Sur 0 1009.8 -0.8 51
2020-03-29 18:00:00 18.4 15 Sudeste 25 Este 0 1010 -1.1 54
2020-03-29 17:00:00 18.1 12 Este 21 Este 0.2 1010.3 -1.3 52
2020-03-29 16:00:00 19.8 7 Sudeste 17 Sudeste 0 1010.6 -1.4 37
2020-03-29 15:00:00 19.4 5 Nordeste 14 Este 0 1011.1 -1.3 36
2020-03-29 14:00:00 19.5 10 Sudeste 18 Sudeste 0 1011.6 -1.2 37
2020-03-29 13:00:00 19.4 9 Sur 17 Sur 0 1012 -0.8 39
2020-03-29 12:00:00 18.2 6 Sudoeste 13 Sur 0 1012.4 -0.3 48
2020-03-29 11:00:00 14.1 4 Sudoeste 9 Sur 0 1012.8 0.2 71
2020-03-29 10:00:00 11.4 4 Sur 11 Sur 0 1012.8 0.4 74
2020-03-29 09:00:00 7.6 5 Sur 8 Sudoeste 0 1012.7 0.3 91
2020-03-29 08:00:00 5.8 5 Sur 10 Sur 0 1012.6 -0.2 93
2020-03-29 07:00:00 6.4 4 Sudoeste 7 Oeste 0 1012.4 -0.8 94
2020-03-29 06:00:00 7 4 Sudoeste 8 Sur 0 1012.4 -1.4 94
2020-03-29 05:00:00 7.7 3 Sur 6 Sudoeste 0 1012.8 -1.2 94
2020-03-29 03:00:00 9.3 6 Sudoeste 8 Sudoeste 0 1013.8 -0.1 93
2020-03-29 01:00:00 10 2 Sur 6 Sur 0 1014 0 92
2020-03-29 00:00:00 10.3 0 Calma 6 Noroeste 0 1014.1 0.3 91
2020-03-28 23:00:00 10.4 4 Sur 7 Sur 0 1013.9 0.6 90
2020-03-28 22:00:00 10.6 3 Sudoeste 8 Oeste 0 1014 1.2 88
2020-03-28 21:00:00 11.5 0 Calma 6 Nordeste 0 1013.8 1.3 85
2020-03-28 20:00:00 12.6 5 Este 12 Nordeste 0 1013.3 1 80
2020-03-28 19:00:00 13.4 9 Nordeste 21 Nordeste 0 1012.8 0.5 75
2020-03-28 18:00:00 14.2 17 Nordeste 24 Nordeste 0 1012.5 0.1 71
2020-03-28 17:00:00 14.9 14 Norte 30 Nordeste 0 1012.3 -0.3 68
2020-03-28 16:00:00 15.3 17 Nordeste 27 Norte 0 1012.3 -0.7 63
2020-03-28 15:00:00 15.9 18 Nordeste 30 Norte 0 1012.4 -0.7 56
2020-03-28 14:00:00 15 13 Norte 26 Norte 0.2 1012.6 -0.5 63
2020-03-28 13:00:00 15.3 12 Norte 21 Norte 0 1013 0 64
2020-03-28 12:00:00 14.1 7 Nordeste 14 Norte 0 1013.1 0.6 71
2020-03-28 11:00:00 12.8 10 Norte 22 Norte 0 1013.1 1.1 79
2020-03-28 10:00:00 11.5 4 Noroeste 13 Norte 0 1013 1.6 87
2020-03-28 09:00:00 10.2 9 Norte 19 Norte 1 1012.5 1.5 89
2020-03-28 08:00:00 10.6 9 Nordeste 16 Norte 0 1012 0.9 83
2020-03-28 07:00:00 8.2 0 Calma 5 Oeste 0 1011.4 0 93
2020-03-28 06:00:00 7.5 3 Sur 5 Sudeste 0 1011 -0.6 93
2020-03-28 05:00:00 8.2 2 Noroeste 9 Noroeste 0 1011.1 -0.8 90
2020-03-28 04:00:00 9.3 6 Norte 13 Norte 0 1011.4 -0.5 89
2020-03-28 03:00:00 9.3 4 Oeste 8 Oeste 0 1011.6 -0.4 85
2020-03-28 02:00:00 8.5 4 Sudoeste 6 Oeste 0 1011.9 0.1 86
2020-03-28 01:00:00 8.3 3 Oeste 7 Norte 0 1011.9 0.3 85
2020-03-28 00:00:00 8.9 4 Norte 10 Noroeste 0 1012 0.7 78
2020-03-27 23:00:00 10.4 7 Noroeste 22 Norte 0 1011.8 0.9 73
2020-03-27 22:00:00 10.7 15 Norte 34 Norte 0 1011.6 1.5 71
2020-03-27 21:00:00 10.8 15 Norte 25 Norte 0 1011.3 1.6 74
2020-03-27 20:00:00 10.2 15 Norte 28 Norte 0 1010.9 1.5 74
2020-03-27 19:00:00 11.1 20 Norte 31 Norte 0 1010.1 0.6 70
2020-03-27 18:00:00 13.2 17 Norte 28 Norte 0 1009.7 0 50
2020-03-27 17:00:00 13.9 17 Norte 30 Nordeste 0 1009.4 -0.4 47
2020-03-27 16:00:00 14.2 18 Norte 28 Norte 0 1009.5 -0.3 47
2020-03-27 15:00:00 14.4 16 Norte 33 Nordeste 0 1009.7 -0.2 45
2020-03-27 14:00:00 14.7 15 Norte 31 Norte 0 1009.8 -0.1 43
2020-03-27 13:00:00 14.5 10 Norte 32 Nordeste 0 1009.8 0.2 44
2020-03-27 12:00:00 13.8 16 Norte 33 Nordeste 0.2 1009.9 0.7 46
2020-03-27 11:00:00 12.8 15 Norte 29 Norte 0 1009.9 1 54
2020-03-27 10:00:00 12 15 Norte 25 Norte 0 1009.6 1 58
2020-03-27 09:00:00 10.6 4 Norte 8 Noroeste 0 1009.2 0.8 66
2020-03-27 08:00:00 5.4 4 Sudoeste 7 Sur 0 1008.9 0.9 91
2020-03-27 07:00:00 3 3 Sur 9 Sur 0 1008.6 0.9 93
2020-03-27 06:00:00 3.7 3 Sudoeste 6 Oeste 0 1008.4 0.8 92
2020-03-27 05:00:00 4.1 0 Calma 5 Sur 0 1008 0.3 91
2020-03-27 04:00:00 5.8 4 Noroeste 8 Noroeste 0 1007.7 0.2 85
2020-03-27 03:00:00 7 5 Sudoeste 16 Norte 0 1007.6 0.2 84
2020-03-27 02:00:00 8.8 9 Norte 18 Norte 0 1007.7 0.5 70
2020-03-27 01:00:00 8.8 12 Norte 19 Norte 0 1007.5 0.5 74
2020-03-27 00:00:00 8.2 10 Noroeste 32 Nordeste 0.4 1007.4 1.1 89
2020-03-26 23:00:00 7.9 12 Norte 26 Norte 2 1007.2 1.6 90
2020-03-26 22:00:00 8.4 6 Sudeste 28 Nordeste 3 1007 2 89
2020-03-26 21:00:00 8.3 6 Noroeste 30 Noroeste 0.2 1006.3 2.1 88
2020-03-26 20:00:00 8.6 12 Norte 29 Norte 0.2 1005.6 1.7 86
2020-03-26 19:00:00 8.9 3 Noroeste 10 Noroeste 0 1005 1 83
2020-03-26 18:00:00 9.1 3 Oeste 8 Sudoeste 0 1004.2 0.2 78
2020-03-26 17:00:00 8.8 2 Sudoeste 9 Sudeste 0.2 1003.9 0 83
2020-03-26 16:00:00 8.1 5 Nordeste 22 Nordeste 1.6 1004 -0.1 85
2020-03-26 15:00:00 8.3 8 Nordeste 20 Nordeste 1.8 1004 0 87
2020-03-26 14:00:00 8.6 15 Nordeste 24 Nordeste 1 1003.9 0 88
2020-03-26 13:00:00 8.5 17 Nordeste 33 Norte 1.4 1004.1 0.1 88
2020-03-26 12:00:00 9 18 Norte 30 Norte 0.2 1004 -0.3 84
2020-03-26 11:00:00 10.5 6 Sudoeste 20 Sudoeste 0 1003.9 -0.7 67
2020-03-26 10:00:00 11 7 Sur 14 Sur 0 1004 -1 69
2020-03-26 09:00:00 10.4 4 Sur 11 Sur 0 1004.3 -1.2 72
2020-03-26 08:00:00 7.4 6 Sudoeste 13 Sudoeste 0 1004.6 -1.5 82
2020-03-26 07:00:00 6.5 9 Sudoeste 18 Sudoeste 0 1005 -2.1 82
2020-03-26 06:00:00 5.3 11 Sur 18 Sur 0 1005.5 -2.7 81
2020-03-26 05:00:00 4.8 8 Sur 12 Sudoeste 0 1006.1 -3 83
2020-03-26 04:00:00 5 5 Sudoeste 11 Sudoeste 0 1007.1 -2.8 83
2020-03-26 03:00:00 4.8 5 Sur 13 Sudoeste 0 1008.2 -2.4 82
2020-03-26 02:00:00 5.1 7 Sur 9 Sur 0 1009.1 -2 80
2020-03-26 01:00:00 5.2 5 Sur 9 Sur 0 1009.9 -1.7 82
2020-03-26 00:00:00 5.1 5 Sur 10 Sudoeste 0 1010.6 -0.8 81
2020-03-25 23:00:00 4.6 8 Sur 11 Sur 0 1011.1 -0.4 80
2020-03-25 22:00:00 5.1 4 Sur 10 Oeste 0 1011.6 0.3 78
2020-03-25 21:00:00 7.1 6 Oeste 11 Oeste 0 1011.4 0 68
2020-03-25 20:00:00 7.3 3 Oeste 12 Nordeste 0 1011.5 0.2 68
2020-03-25 19:00:00 10.4 7 Nordeste 17 Nordeste 0 1011.3 -0.1 51
2020-03-25 18:00:00 11.8 11 Nordeste 28 Nordeste 0 1011.4 -0.1 44
2020-03-25 17:00:00 13.1 17 Nordeste 35 Nordeste 0 1011.3 -0.5 39
2020-03-25 16:00:00 13.2 14 Nordeste 33 Nordeste 0 1011.4 -0.6 42
2020-03-25 15:00:00 13.5 18 Nordeste 42 Nordeste 0 1011.5 -0.8 37
2020-03-25 14:00:00 12.9 21 Nordeste 38 Nordeste 0 1011.8 -0.6 40
2020-03-25 13:00:00 14.1 15 Nordeste 32 Nordeste 0 1012 -0.8 37
2020-03-25 12:00:00 12.7 18 Nordeste 34 Nordeste 0 1012.3 -0.7 42
2020-03-25 11:00:00 13 17 Nordeste 32 Norte 0 1012.4 -0.4 44
2020-03-25 10:00:00 10.8 10 Norte 17 Norte 0 1012.8 1 61
2020-03-25 09:00:00 8.6 7 Norte 34 Nordeste 0 1013 1.2 72
2020-03-25 08:00:00 8.5 21 Nordeste 35 Nordeste 0 1012.8 1.2 73
2020-03-25 07:00:00 7.8 3 Norte 10 Nordeste 0 1011.8 -0.1 68
2020-03-25 06:00:00 8.7 7 Nordeste 22 Nordeste 0 1011.8 -0.3 55
2020-03-25 05:00:00 9.6 11 Nordeste 22 Este 0 1011.6 -1 53
2020-03-25 04:00:00 10 12 Nordeste 31 Nordeste 0 1011.9 -0.9 53
2020-03-25 03:00:00 10.5 14 Nordeste 27 Nordeste 0 1012.1 -1.1 56
2020-03-25 02:00:00 9.9 14 Nordeste 35 Nordeste 0 1012.6 -0.9 65
2020-03-25 01:00:00 10.1 11 Nordeste 31 Nordeste 0 1012.8 -0.7 72
2020-03-25 00:00:00 10.4 13 Nordeste 32 Nordeste 0.2 1013.2 -0.1 72
2020-03-24 23:00:00 11.3 13 Nordeste 31 Nordeste 0 1013.5 0.4 60
2020-03-24 22:00:00 11.6 17 Nordeste 36 Este 0 1013.5 0.7 60
2020-03-24 21:00:00 11.6 17 Nordeste 35 Nordeste 0 1013.3 0.7 58
2020-03-24 20:00:00 12.1 19 Nordeste 35 Nordeste 0 1013.1 0.6 55
2020-03-24 19:00:00 12.1 18 Nordeste 37 Nordeste 0 1012.8 0.2 52
2020-03-24 18:00:00 12.8 27 Nordeste 45 Nordeste 0 1012.6 -0.6 54
2020-03-24 17:00:00 13.3 20 Nordeste 39 Este 0 1012.5 -1.3 54
2020-03-24 16:00:00 14.2 21 Nordeste 48 Nordeste 0 1012.6 -1.3 55
2020-03-24 15:00:00 14.9 22 Nordeste 41 Nordeste 0 1013.2 -0.8 64
2020-03-24 14:00:00 14.5 21 Nordeste 39 Nordeste 0 1013.8 -0.4 65
2020-03-24 13:00:00 15.3 20 Nordeste 42 Este 0 1013.9 -0.1 64
2020-03-24 12:00:00 14.3 21 Nordeste 42 Nordeste 0 1014 0.2 69
2020-03-24 11:00:00 14 23 Nordeste 43 Nordeste 0 1014.2 0.2 71
2020-03-24 10:00:00 14 25 Nordeste 51 Nordeste 0.2 1014 0.3 73
2020-03-24 09:00:00 14 26 Nordeste 41 Nordeste 0 1013.8 0.2 72
2020-03-24 08:00:00 13.3 19 Nordeste 39 Nordeste 0 1014 0.4 74
2020-03-24 07:00:00 13.1 19 Nordeste 37 Nordeste 0 1013.7 0.1 75
2020-03-24 06:00:00 13.4 18 Nordeste 32 Nordeste 0 1013.6 0 78
2020-03-24 05:00:00 13.4 15 Nordeste 31 Nordeste 0 1013.6 -0.2 80
2020-03-24 04:00:00 13.6 18 Nordeste 36 Nordeste 0 1013.6 -0.6 81
2020-03-24 03:00:00 13.8 19 Nordeste 32 Nordeste 0 1013.6 -1.1 82
2020-03-24 02:00:00 14 16 Nordeste 31 Nordeste 0 1013.8 -1 84
2020-03-24 01:00:00 13.9 13 Nordeste 27 Nordeste 0 1014.2 -0.6 87
2020-03-24 00:00:00 13.6 10 Nordeste 17 Nordeste 0 1014.7 0 86
2020-03-23 23:00:00 13.1 10 Nordeste 19 Nordeste 0 1014.8 0.2 86
2020-03-23 22:00:00 13.7 12 Nordeste 23 Nordeste 0 1014.8 0.5 82
2020-03-23 21:00:00 14.4 15 Nordeste 25 Nordeste 0 1014.7 0.8 84
2020-03-23 20:00:00 14.5 13 Nordeste 24 Nordeste 0 1014.6 1.3 83
2020-03-23 19:00:00 14.9 15 Nordeste 28 Nordeste 0 1014.3 0.9 81
2020-03-23 18:00:00 15.4 19 Nordeste 29 Nordeste 0 1013.9 0.7 78
2020-03-23 17:00:00 16.6 20 Nordeste 33 Nordeste 0 1013.3 -0.4 72
2020-03-23 16:00:00 17.1 22 Nordeste 36 Nordeste 0 1013.4 -0.8 69
2020-03-23 15:00:00 18 21 Nordeste 34 Nordeste 0 1013.2 -1.1 65
2020-03-23 14:00:00 17.6 16 Nordeste 26 Nordeste 0 1013.7 -0.6 70
2020-03-23 13:00:00 17.6 12 Nordeste 22 Nordeste 0 1014.2 -0.1 67
2020-03-23 12:00:00 17.6 9 Este 19 Este 0 1014.3 0.3 68
2020-03-23 11:00:00 16.8 8 Este 15 Este 0 1014.3 0.6 69
2020-03-23 10:00:00 15.6 6 Nordeste 11 Nordeste 0 1014.3 1.3 84
2020-03-23 09:00:00 13.4 0 Calma 7 Sur 0 1014 1.4 95
2020-03-23 08:00:00 9.8 4 Sudoeste 8 Sur 0 1013.7 1.5 97
2020-03-23 07:00:00 7.8 6 Sur 10 Sudoeste 0 1013 1 96
2020-03-23 06:00:00 7.7 5 Sudoeste 9 Sudoeste 0 1012.6 0.6 97
2020-03-23 05:00:00 7.9 5 Sudoeste 8 Sudoeste 0 1012.2 0.2 97
2020-03-23 04:00:00 8 6 Sur 10 Sur 0 1012 -0.3 96
2020-03-23 03:00:00 8 5 Sudoeste 9 Sur 0 1012 -0.1 97
2020-03-23 02:00:00 7.6 3 Sur 10 Sur 0 1012 0.2 96
2020-03-23 01:00:00 8.5 4 Sur 8 Sur 0 1012.3 0.7 96
2020-03-23 00:00:00 9.6 2 Sudoeste 10 Sudoeste 0 1012.1 1 96
2020-03-22 23:00:00 10.3 7 Sudoeste 9 Sudoeste 0 1011.8 1.1 95
2020-03-22 22:00:00 11.3 4 Sudoeste 6 Noroeste 0 1011.6 1.7 94
2020-03-22 21:00:00 12.3 4 Noroeste 7 Oeste 0 1011.1 1.8 93
2020-03-22 20:00:00 13.3 4 Norte 8 Nordeste 0 1010.7 2.1 91
2020-03-22 19:00:00 13.9 4 Norte 10 Este 0 1009.9 1.1 87
2020-03-22 18:00:00 14.9 6 Este 10 Nordeste 0 1009.3 0.4 80
2020-03-22 17:00:00 14.8 4 Norte 9 Este 0 1008.6 -0.3 81
2020-03-22 16:00:00 13.9 5 Nordeste 10 Norte 0 1008.8 -0.4 82
2020-03-22 15:00:00 13.9 3 Este 6 Este 0 1008.9 0.2 90
2020-03-22 14:00:00 13.8 0 Calma 8 Norte 0 1008.9 0.3 91
2020-03-22 13:00:00 13.6 6 Sudoeste 14 Oeste 0 1009.2 1 90
2020-03-22 12:00:00 14.2 5 Norte 13 Nordeste 0 1008.7 1 80
2020-03-22 11:00:00 14.1 2 Sudoeste 13 Nordeste 0 1008.6 1.2 82
2020-03-22 10:00:00 15.1 7 Nordeste 20 Este 0 1008.2 0.8 85
2020-03-22 09:00:00 14.2 16 Nordeste 26 Norte 0 1007.7 0.5 88
2020-03-22 08:00:00 13.5 12 Norte 25 Nordeste 0 1007.4 0.3 93
2020-03-22 07:00:00 11.1 3 Oeste 6 Este 0 1007.4 0.2 94
2020-03-22 06:00:00 10.1 4 Sudoeste 12 Noroeste 0 1007.2 -0.4 94
2020-03-22 05:00:00 8.9 4 Sudoeste 9 Oeste 0 1007.1 -1.1 93
2020-03-22 04:00:00 8.3 4 Sur 7 Oeste 0 1007.2 -1.1 94
2020-03-22 03:00:00 9.5 4 Sudoeste 7 Sudoeste 0 1007.6 -1 94
2020-03-22 02:00:00 9.7 2 Sudeste 7 Sudoeste 0 1008.2 -0.8 93
2020-03-22 01:00:00 10.6 3 Noroeste 6 Noroeste 0 1008.3 -0.6 92
2020-03-22 00:00:00 10.6 2 Nordeste 6 Oeste 0 1008.6 -0.1 92
2020-03-21 23:00:00 11.1 0 Calma 8 Oeste 0 1009 0.5 91
2020-03-21 22:00:00 12 2 Sudoeste 10 Norte 0 1008.9 0.9 89
2020-03-21 21:00:00 13.8 6 Norte 12 Norte 0 1008.7 1.2 84
2020-03-21 20:00:00 14.4 6 Norte 12 Nordeste 0 1008.5 1 83
2020-03-21 19:00:00 14.5 9 Nordeste 24 Nordeste 0 1008 0.3 83
2020-03-21 18:00:00 15.8 15 Nordeste 25 Nordeste 0 1007.5 -0.8 74
2020-03-21 17:00:00 17 15 Nordeste 26 Nordeste 0 1007.5 -0.9 66
2020-03-21 16:00:00 16.5 14 Nordeste 22 Nordeste 0 1007.7 -1.3 70
2020-03-21 15:00:00 16 17 Nordeste 26 Nordeste 0 1008.3 -0.8 73
2020-03-21 14:00:00 17.4 15 Nordeste 30 Nordeste 0 1008.4 -1 68
2020-03-21 13:00:00 17.5 13 Nordeste 31 Nordeste 0 1009 -0.5 66
2020-03-21 12:00:00 17 17 Nordeste 29 Nordeste 0 1009.1 -0.4 69
2020-03-21 11:00:00 17.2 13 Nordeste 34 Nordeste 0 1009.4 -0.3 72
2020-03-21 10:00:00 16 19 Nordeste 27 Nordeste 0 1009.5 -0.2 78
2020-03-21 09:00:00 14.7 12 Norte 19 Norte 0 1009.5 -0.3 85
2020-03-21 08:00:00 14.1 11 Norte 17 Nordeste 0 1009.7 -0.1 87
2020-03-21 07:00:00 13.4 11 Norte 18 Norte 0 1009.7 -0.3 87
2020-03-21 06:00:00 13.7 12 Norte 19 Norte 0 1009.8 -1.2 83
2020-03-21 05:00:00 13.4 10 Norte 16 Norte 0 1009.8 -1.8 84
2020-03-21 04:00:00 12.8 8 Norte 13 Norte 0 1010 -2.1 85
2020-03-21 03:00:00 13.3 7 Norte 15 Nordeste 0 1011 -1.5 83
2020-03-21 02:00:00 13.4 8 Nordeste 15 Norte 0 1011.6 -1.3 83
2020-03-21 01:00:00 13.4 11 Nordeste 16 Nordeste 0 1012.1 -1.1 80
2020-03-21 00:00:00 13.3 9 Nordeste 17 Nordeste 0 1012.5 -0.9 82
2020-03-20 23:00:00 12.6 8 Nordeste 14 Nordeste 0 1012.9 -0.6 84
2020-03-20 22:00:00 12.9 11 Nordeste 22 Nordeste 0 1013.2 0 83
2020-03-20 21:00:00 13.8 14 Nordeste 28 Nordeste 0 1013.4 0.1 78
2020-03-20 20:00:00 14.5 17 Nordeste 30 Nordeste 0 1013.5 -0.1 77
2020-03-20 19:00:00 14.7 15 Nordeste 27 Norte 0 1013.2 -0.5 78
2020-03-20 18:00:00 15.2 17 Nordeste 31 Nordeste 0 1013.3 -0.7 75
2020-03-20 17:00:00 16.1 20 Nordeste 34 Nordeste 0 1013.6 -0.8 72
2020-03-20 16:00:00 16.7 18 Nordeste 31 Norte 0 1013.7 -1 60
2020-03-20 15:00:00 17 18 Nordeste 37 Nordeste 0 1014 -1.1 64
2020-03-20 14:00:00 17.3 16 Nordeste 38 Este 0 1014.4 -1 58
2020-03-20 13:00:00 17.4 17 Nordeste 38 Nordeste 0 1014.7 -0.9 54
2020-03-20 12:00:00 16.8 21 Nordeste 40 Nordeste 0 1015.1 -0.6 63
2020-03-20 11:00:00 16.1 20 Nordeste 34 Nordeste 0 1015.4 0 66
2020-03-20 10:00:00 15.4 9 Nordeste 15 Nordeste 0 1015.6 0.4 71
2020-03-20 09:00:00 11.7 2 Norte 5 Noroeste 0 1015.7 0.6 92
2020-03-20 08:00:00 8.2 2 Sur 6 Oeste 0 1015.4 0.2 94
2020-03-20 07:00:00 6.4 4 Sudoeste 5 Sudoeste 0 1015.2 -0.2 94
2020-03-20 06:00:00 6 4 Sudoeste 6 Oeste 0 1015.1 -0.7 94
2020-03-20 05:00:00 5.5 2 Sur 6 Este 0 1015.2 -1.1 94
2020-03-20 04:00:00 6.9 4 Sudoeste 6 Sudoeste 0 1015.4 -1.4 94
2020-03-20 03:00:00 6.9 3 Sudoeste 7 Noroeste 0 1015.8 -1.6 93
2020-03-20 02:00:00 7.3 3 Oeste 6 Noroeste 0 1016.3 -1.3 93
2020-03-20 01:00:00 7.7 3 Oeste 7 Noroeste 0 1016.8 -0.7 91
2020-03-20 00:00:00 8.6 3 Sudoeste 5 Norte 0 1017.4 -0.1 92
2020-03-19 23:00:00 9.3 0 Calma 6 Sudoeste 0 1017.6 0.3 91
2020-03-19 22:00:00 11.2 6 Noroeste 9 Noroeste 0 1017.5 0.4 89
2020-03-19 21:00:00 11.7 6 Noroeste 10 Norte 0 1017.5 0.4 86
2020-03-19 20:00:00 13 8 Norte 14 Norte 0 1017.3 0 81
2020-03-19 19:00:00 13.6 11 Nordeste 22 Nordeste 0 1017.1 -0.6 78
2020-03-19 18:00:00 15 14 Nordeste 25 Nordeste 0 1017.1 -1 70
2020-03-19 17:00:00 16.2 14 Nordeste 25 Nordeste 0 1017.3 -1.3 62
2020-03-19 16:00:00 17 14 Nordeste 26 Nordeste 0 1017.7 -1.5 59
2020-03-19 15:00:00 17.6 14 Nordeste 26 Este 0 1018.1 -1.7 56
2020-03-19 14:00:00 17.3 14 Nordeste 28 Nordeste 0 1018.6 -1.6 56
2020-03-19 13:00:00 17.8 16 Nordeste 28 Nordeste 0 1019.2 -1 57
2020-03-19 12:00:00 16.7 10 Nordeste 19 Nordeste 0 1019.8 -0.3 61
2020-03-19 11:00:00 16.2 10 Este 16 Este 0 1020.2 0.4 68
2020-03-19 10:00:00 14.7 6 Nordeste 12 Nordeste 0 1020.2 0.5 79
2020-03-19 09:00:00 11.7 2 Sur 5 Sur 0 1020.1 0.4 94
2020-03-19 08:00:00 8.8 3 Sudoeste 6 Sudoeste 0 1019.8 0.1 95
2020-03-19 07:00:00 7.8 5 Sudoeste 7 Sudoeste 0 1019.7 -0.1 95
2020-03-19 06:00:00 8 4 Sur 6 Sudoeste 0 1019.7 -0.7 95
2020-03-19 05:00:00 8 4 Sur 5 Sur 0 1019.7 -1.2 95
2020-03-19 04:00:00 8.3 2 Oeste 5 Oeste 0 1019.8 -1.1 95
2020-03-19 03:00:00 9.4 3 Oeste 6 Sur 0 1020.4 -1 95
2020-03-19 02:00:00 9.7 3 Sudoeste 5 Sur 0 1020.9 -0.7 94
2020-03-19 01:00:00 10.5 3 Sudoeste 7 Sudoeste 0 1020.9 -0.8 94
2020-03-19 00:00:00 10.8 0 Calma 6 Oeste 0 1021.4 -0.2 94
2020-03-18 23:00:00 12.2 4 Oeste 7 Oeste 0 1021.6 0.3 93
2020-03-18 22:00:00 12.6 2 Sur 5 Noroeste 0 1021.7 0.7 91
2020-03-18 21:00:00 13.8 4 Noroeste 9 Norte 0 1021.6 0.8 90
2020-03-18 20:00:00 14.1 6 Norte 13 Norte 0 1021.3 0.6 88
2020-03-18 19:00:00 14.4 9 Norte 18 Nordeste 0 1021 0 89
2020-03-18 18:00:00 15 13 Nordeste 24 Nordeste 0 1020.8 -0.5 84
2020-03-18 17:00:00 15.8 16 Nordeste 26 Nordeste 0 1020.7 -1 75
2020-03-18 16:00:00 16.3 18 Nordeste 27 Nordeste 0 1021 -1.5 73
2020-03-18 15:00:00 16.9 17 Nordeste 30 Nordeste 0 1021.3 -1.6 71
2020-03-18 14:00:00 17.1 14 Nordeste 31 Nordeste 0 1021.7 -1.2 69
2020-03-18 13:00:00 17 13 Nordeste 29 Norte 0 1022.5 -0.4 72
2020-03-18 12:00:00 16.4 15 Nordeste 28 Nordeste 0 1022.9 0.2 78
2020-03-18 11:00:00 15.5 18 Nordeste 27 Nordeste 0 1022.9 0.4 81
2020-03-18 10:00:00 15.1 18 Nordeste 25 Nordeste 0 1022.9 0.5 84
2020-03-18 09:00:00 14.4 10 Nordeste 17 Nordeste 0 1022.7 0.1 86
2020-03-18 08:00:00 13.5 8 Norte 14 Norte 0 1022.5 0.1 89
2020-03-18 07:00:00 12.8 6 Norte 12 Nordeste 0 1022.4 0 88
2020-03-18 06:00:00 13.5 8 Nordeste 18 Nordeste 0 1022.6 -0.4 86
2020-03-18 05:00:00 13.7 10 Norte 18 Nordeste 0 1022.4 -0.7 87
2020-03-18 04:00:00 13.3 9 Norte 14 Norte 0 1022.4 -0.8 87
2020-03-18 03:00:00 13.3 9 Nordeste 18 Nordeste 0 1023 -0.5 87
2020-03-18 02:00:00 13.6 11 Norte 21 Norte 0 1023.1 -0.5 88
2020-03-18 01:00:00 13.8 10 Norte 17 Norte 0 1023.2 -0.4 87
2020-03-18 00:00:00 13.8 7 Norte 20 Norte 0 1023.5 0.3 81
2020-03-17 23:00:00 14.2 14 Norte 25 Nordeste 0 1023.6 0.9 82
2020-03-17 22:00:00 14.5 15 Nordeste 23 Norte 0 1023.6 1.2 83
2020-03-17 21:00:00 14.7 15 Norte 29 Nordeste 0 1023.2 1.3 79
2020-03-17 20:00:00 14.7 16 Nordeste 27 Nordeste 0 1022.7 1 82
2020-03-17 19:00:00 14.9 16 Nordeste 31 Nordeste 0 1022.4 0.8 83
2020-03-17 18:00:00 15.2 18 Nordeste 31 Nordeste 0 1021.9 0.4 81
2020-03-17 17:00:00 15.7 17 Nordeste 31 Nordeste 0 1021.7 0.4 79
2020-03-17 16:00:00 16.2 21 Nordeste 31 Nordeste 0 1021.6 0.1 75
2020-03-17 15:00:00 16.6 19 Nordeste 30 Nordeste 0 1021.5 -0.2 73
2020-03-17 14:00:00 17.2 16 Nordeste 34 Nordeste 0 1021.3 -0.1 71
2020-03-17 13:00:00 16.9 15 Nordeste 26 Este 0 1021.5 0.3 75
2020-03-17 12:00:00 16.4 13 Nordeste 27 Nordeste 0 1021.7 1.1 79
2020-03-17 11:00:00 16.1 12 Nordeste 25 Nordeste 0 1021.4 1.4 81
2020-03-17 10:00:00 15.9 12 Nordeste 24 Nordeste 0 1021.2 2.2 86
2020-03-17 09:00:00 15.4 11 Nordeste 19 Nordeste 0 1020.6 3.2 88
2020-03-17 08:00:00 15.1 10 Nordeste 26 Nordeste 0 1020 2.3 90
2020-03-17 07:00:00 15.1 12 Nordeste 35 Nordeste 0 1019 1.5 91
2020-03-17 06:00:00 15 22 Nordeste 32 Nordeste 0 1017.4 0 93
2020-03-17 05:00:00 15 7 Norte 13 Norte 0 1017.7 0.3 93
2020-03-17 04:00:00 15.2 7 Norte 10 Norte 0 1017.5 0.4 90
2020-03-17 03:00:00 15.2 4 Norte 8 Norte 0 1017.4 0.6 88
2020-03-17 02:00:00 15.1 4 Noroeste 9 Noroeste 0 1017.4 1.1 87
2020-03-17 01:00:00 15.1 3 Noroeste 10 Noroeste 0 1017.1 1.4 87
2020-03-17 00:00:00 15.4 4 Norte 8 Norte 0 1016.8 2.1 85
2020-03-16 23:00:00 15.5 4 Nordeste 15 Este 0 1016.3 2.3 84
2020-03-16 22:00:00 15.6 5 Nordeste 11 Este 0 1015.7 2.6 84
2020-03-16 21:00:00 15.9 8 Este 18 Este 0 1014.7 2.6 81
2020-03-16 20:00:00 16 9 Este 18 Este 0 1014 2.5 82
2020-03-16 19:00:00 16.2 12 Este 21 Sudeste 0 1013.1 1.8 81
2020-03-16 18:00:00 16.6 14 Sudeste 28 Sudeste 0 1012.1 1 80
2020-03-16 17:00:00 17.7 14 Sudeste 33 Sudeste 0 1011.5 0.6 75
2020-03-16 16:00:00 17.6 19 Sudeste 31 Sudeste 0 1011.3 0.1 76
2020-03-16 15:00:00 17.2 18 Sudeste 32 Sudeste 0 1011.1 -0.3 77
2020-03-16 14:00:00 17.1 16 Sudeste 28 Sudeste 0 1010.9 -0.6 78
2020-03-16 13:00:00 16.8 17 Este 29 Sudeste 0 1011.2 -0.1 80
2020-03-16 12:00:00 15.9 13 Este 27 Este 0 1011.4 1.3 84
2020-03-16 11:00:00 15.5 12 Sudeste 23 Sudeste 0 1011.5 1.9 86
2020-03-16 10:00:00 15.2 6 Sur 13 Sur 0 1011.3 1.7 86
2020-03-16 09:00:00 14 3 Noroeste 14 Noroeste 0 1010.1 0.3 91
2020-03-16 08:00:00 13 9 Noroeste 14 Noroeste 0 1009.6 -0.2 91
2020-03-16 07:00:00 11.4 3 Este 10 Noroeste 0 1009.6 -0.8 90
2020-03-16 06:00:00 10 3 Sur 11 Noroeste 0 1009.8 -0.8 91
2020-03-16 05:00:00 9.9 8 Noroeste 13 Noroeste 0 1009.8 -1.4 93
2020-03-16 04:00:00 8 4 Sur 5 Sudeste 0 1010.4 -2.2 94
2020-03-16 03:00:00 8.6 3 Oeste 6 Noroeste 0 1010.6 -2.6 92
2020-03-16 02:00:00 9.9 3 Norte 14 Noroeste 0 1011.2 -2.7 91
2020-03-16 01:00:00 9.6 8 Oeste 11 Oeste 0 1012.6 -0.9 91
2020-03-16 00:00:00 9.6 4 Sudoeste 10 Oeste 0 1013.2 0.1 89
2020-03-15 23:00:00 10.1 4 Sudoeste 9 Oeste 0 1013.9 1.3 89
2020-03-15 22:00:00 11.1 6 Oeste 9 Oeste 0 1013.5 1.1 87
2020-03-15 21:00:00 12 4 Oeste 8 Oeste 0 1013.1 0.8 84
2020-03-15 20:00:00 13.6 4 Sur 12 Sur 0 1012.6 0.1 74
2020-03-15 19:00:00 14.8 6 Sudeste 21 Sudeste 0 1012.4 -0.8 71
2020-03-15 18:00:00 17.1 15 Sudeste 22 Este 0 1012.3 -1.4 58
2020-03-15 17:00:00 18.5 15 Sudeste 24 Sudeste 0 1012.5 -1.9 56
2020-03-15 16:00:00 19.8 5 Sur 18 Sudeste 0 1013.2 -2 51
2020-03-15 15:00:00 18.6 8 Sur 19 Nordeste 0 1013.7 -2.2 57
2020-03-15 14:00:00 18.7 12 Sudeste 22 Sudeste 0 1014.4 -2 57
2020-03-15 13:00:00 18.2 9 Sur 18 Sudeste 0 1015.2 -1.4 57
2020-03-15 12:00:00 17.8 8 Este 20 Sur 0 1015.9 -0.7 58
2020-03-15 11:00:00 16.3 3 Sur 9 Este 0 1016.4 0 67
2020-03-15 10:00:00 14.8 5 Sur 8 Sur 0 1016.6 0.4 77
2020-03-15 09:00:00 11.2 3 Sur 8 Sudoeste 0 1016.6 0.5 91
2020-03-15 08:00:00 7 4 Sudoeste 13 Sudoeste 0 1016.4 0.2 95
2020-03-15 07:00:00 5.7 8 Sudoeste 11 Sudoeste 0 1016.2 0 95
2020-03-15 06:00:00 6 5 Sur 8 Sur 0 1016.1 -0.8 95
2020-03-15 05:00:00 6.3 4 Sudoeste 8 Sudoeste 0 1016.2 -1.1 95
2020-03-15 04:00:00 7.2 2 Sudoeste 10 Sudoeste 0 1016.2 -1.2 95
2020-03-15 03:00:00 8.3 5 Sudoeste 9 Sudoeste 0 1016.9 -0.7 94
2020-03-15 02:00:00 8 2 Sudoeste 8 Sur 0 1017.3 -0.2 94
2020-03-15 01:00:00 8.6 5 Sudoeste 10 Sudoeste 0 1017.4 0 93
2020-03-15 00:00:00 9.2 6 Sudoeste 10 Sudoeste 0 1017.6 0.4 93
2020-03-14 23:00:00 9.6 6 Sudoeste 9 Sudoeste 0 1017.5 0.6 93
2020-03-14 22:00:00 10.4 2 Oeste 9 Sudoeste 0 1017.4 0.9 91
2020-03-14 21:00:00 11 3 Sudoeste 5 Sudoeste 0 1017.2 0.8 90
2020-03-14 20:00:00 12.2 3 Noroeste 8 Noroeste 0 1016.9 0.7 86
2020-03-14 19:00:00 14 3 Nordeste 12 Sudeste 0 1016.5 0.3 79
2020-03-14 18:00:00 15.1 8 Este 19 Este 0 1016.4 0.4 72
2020-03-14 17:00:00 15.1 10 Este 24 Nordeste 0 1016.2 -0.4 72
2020-03-14 16:00:00 15.8 14 Nordeste 26 Nordeste 0 1016.2 -1 67
2020-03-14 15:00:00 18.8 7 Norte 13 Norte 0 1016 -1.7 53
2020-03-14 14:00:00 18 4 Sudoeste 12 Sur 0 1016.6 -1.4 54
2020-03-14 13:00:00 17.2 5 Nordeste 17 Nordeste 0 1017.2 -0.7 57
2020-03-14 12:00:00 16.4 7 Este 18 Nordeste 0 1017.7 0.4 62
2020-03-14 11:00:00 15.4 9 Nordeste 16 Nordeste 0 1018 1.6 62
2020-03-14 10:00:00 14.4 7 Este 12 Este 0 1017.9 2.1 73
2020-03-14 09:00:00 11.4 4 Sudeste 5 Sudeste 0 1017.3 2 94
2020-03-14 08:00:00 9.9 3 Sudoeste 8 Sur 0 1016.4 1.5 95
2020-03-14 07:00:00 9.5 4 Sudoeste 8 Sudoeste 0 1015.8 0.6 94
2020-03-14 06:00:00 10 4 Sudoeste 8 Sudoeste 0 1015.3 -0.3 94
2020-03-14 05:00:00 10.5 2 Sudeste 8 Noroeste 0 1014.9 -1.1 93
2020-03-14 04:00:00 10.8 6 Oeste 14 Noroeste 0 1015.2 -0.3 91
2020-03-14 03:00:00 10.9 5 Sudoeste 12 Sur 0 1015.6 -0.2 91
2020-03-14 02:00:00 10.5 6 Sur 9 Sur 0 1016 0.2 88
2020-03-14 01:00:00 10.8 4 Oeste 6 Oeste 0 1015.5 -0.1 79
2020-03-14 00:00:00 10.1 0 Calma 5 Noroeste 0 1015.8 0.5 86
2020-03-13 23:00:00 10.6 3 Sudoeste 6 Norte 0 1015.8 0.9 86
2020-03-13 22:00:00 11.6 4 Noroeste 8 Norte 0 1015.6 1.2 85
2020-03-13 21:00:00 12.4 6 Norte 13 Nordeste 0 1015.3 1 81
2020-03-13 20:00:00 12.6 7 Nordeste 14 Nordeste 0 1014.9 0.4 81
2020-03-13 19:00:00 14.3 13 Nordeste 21 Norte 0 1014.4 -0.4 73
2020-03-13 18:00:00 15.4 15 Nordeste 23 Norte 0 1014.3 -0.6 69
2020-03-13 17:00:00 16.7 14 Nordeste 24 Norte 0 1014.5 -0.8 65
2020-03-13 16:00:00 16.8 15 Nordeste 26 Este 0 1014.8 -1.3 69
2020-03-13 15:00:00 17.4 15 Nordeste 34 Nordeste 0 1014.9 -1.6 64
2020-03-13 14:00:00 18.5 17 Nordeste 29 Nordeste 0 1015.3 -1.4 63
2020-03-13 13:00:00 18.3 18 Nordeste 38 Nordeste 0 1016.1 -0.2 62
2020-03-13 12:00:00 17.8 21 Nordeste 35 Nordeste 0 1016.5 0.4 70
2020-03-13 11:00:00 17.6 21 Norte 32 Norte 0 1016.7 0.9 66
2020-03-13 10:00:00 16.3 19 Nordeste 30 Nordeste 0 1016.3 0.7 73
2020-03-13 09:00:00 15.2 9 Norte 15 Norte 0 1016.1 1.2 81
2020-03-13 08:00:00 13.5 9 Norte 18 Norte 0 1015.8 1.1 85
2020-03-13 07:00:00 13.2 10 Norte 24 Norte 0 1015.6 1.3 83
2020-03-13 06:00:00 13.3 13 Norte 19 Norte 0 1014.9 0.6 84
2020-03-13 05:00:00 10.5 8 Norte 12 Norte 0 1014.7 0.1 92
2020-03-13 04:00:00 8.1 2 Oeste 4 Noroeste 0 1014.3 -0.6 83
2020-03-13 03:00:00 8.2 0 Calma 6 Sur 0 1014.3 -0.5 81
2020-03-13 02:00:00 8.5 4 Sur 9 Oeste 0 1014.6 -0.5 81
2020-03-13 01:00:00 10.2 7 Oeste 9 Oeste 0 1014.9 -0.2 72
2020-03-13 00:00:00 10.4 3 Sudoeste 7 Sudoeste 0 1014.8 -0.2 70
2020-03-12 23:00:00 12.1 5 Sudoeste 7 Sudoeste 0 1015.1 0.4 62
2020-03-12 22:00:00 13 5 Sur 8 Sudoeste 0 1015.1 0.6 62
2020-03-12 21:00:00 14.3 4 Sudoeste 11 Sudoeste 0 1015 0.9 58
2020-03-12 20:00:00 16.7 7 Sur 12 Sur 0 1014.7 0.6 50
2020-03-12 19:00:00 19.6 7 Sur 16 Sudoeste 0 1014.5 -0.2 40
2020-03-12 18:00:00 22.8 9 Sudoeste 21 Sudoeste 0 1014.1 -1.1 33
2020-03-12 17:00:00 24.2 12 Sudoeste 24 Sudoeste 0 1014.1 -2 30
2020-03-12 16:00:00 25.1 12 Sudoeste 25 Sudoeste 0 1014.7 -2.4 28
2020-03-12 15:00:00 25.7 11 Sudoeste 26 Sudoeste 0 1015.2 -2.6 29
2020-03-12 14:00:00 25.4 12 Sudoeste 24 Sudoeste 0 1016.1 -2 31
2020-03-12 13:00:00 24 13 Sudoeste 24 Sudoeste 0 1017.1 -1.2 32
2020-03-12 12:00:00 22.6 13 Sudoeste 24 Sudoeste 0 1017.8 -0.6 33
2020-03-12 11:00:00 20.9 8 Sudoeste 16 Sur 0 1018.1 0.1 42
2020-03-12 10:00:00 18.2 7 Sur 15 Sudoeste 0 1018.3 0.6 53
2020-03-12 09:00:00 14 6 Sudoeste 14 Sur 0 1018.4 1 86
2020-03-12 08:00:00 9.1 6 Sur 9 Sur 0 1018 0.5 95
2020-03-12 07:00:00 8.1 3 Oeste 8 Sur 0 1017.7 0 96
2020-03-12 06:00:00 8.2 3 Nordeste 5 Norte 0 1017.4 -0.8 96
2020-03-12 05:00:00 9.6 4 Sudoeste 9 Sudoeste 0 1017.5 -1.3 97
2020-03-12 04:00:00 10.3 3 Sudoeste 11 Sudoeste 0 1017.7 -1.4 96
2020-03-12 03:00:00 10.7 5 Sur 15 Sudoeste 0 1018.2 -1.2 96
2020-03-12 02:00:00 11.6 9 Sudoeste 16 Sur 0 1018.8 -0.9 96
2020-03-12 01:00:00 12.3 8 Sur 15 Sur 0 1019.1 -0.6 96
2020-03-12 00:00:00 13.1 5 Sudoeste 15 Sudoeste 0 1019.4 0.1 95
2020-03-11 23:00:00 13 6 Sur 15 Sur 0 1019.7 0.6 94
2020-03-11 22:00:00 13.3 7 Sudoeste 15 Sudoeste 0 1019.7 0.8 91
2020-03-11 21:00:00 14.1 9 Sudoeste 17 Sur 0 1019.3 0.9 86
2020-03-11 20:00:00 15.2 6 Sudoeste 11 Sudoeste 0 1019.1 0.8 79
2020-03-11 19:00:00 16.6 0 Calma 11 Nordeste 0 1018.9 0.5 69
2020-03-11 18:00:00 18.8 6 Nordeste 17 Nordeste 0 1018.4 0.2 60
2020-03-11 17:00:00 19.5 11 Este 22 Nordeste 0 1018.3 -0.7 55
2020-03-11 16:00:00 20.6 14 Nordeste 25 Nordeste 0 1018.4 -1.4 55
2020-03-11 15:00:00 23.7 5 Este 17 Oeste 0 1018.2 -2.2 44
2020-03-11 14:00:00 22.9 5 Sudoeste 14 Sur 0 1019 -1.6 49
2020-03-11 13:00:00 21.8 4 Sudoeste 15 Sudeste 0 1019.8 -0.8 50
2020-03-11 12:00:00 19.6 5 Sudeste 13 Sur 0 1020.4 0.2 56
2020-03-11 11:00:00 17.3 7 Sudeste 13 Sudeste 0 1020.6 0.8 65
2020-03-11 10:00:00 14.6 6 Nordeste 11 Norte 0 1020.6 1.2 77
2020-03-11 09:00:00 13.1 0 Calma 5 Sudoeste 0 1020.2 1.3 81
2020-03-11 08:00:00 8.4 3 Oeste 8 Noroeste 0 1019.8 1 90
2020-03-11 07:00:00 7.2 3 Norte 8 Norte 0 1019.4 0.5 89
2020-03-11 06:00:00 9.3 3 Sudoeste 11 Sudoeste 0 1018.9 -0.6 91
2020-03-11 05:00:00 10.6 7 Sur 14 Sudeste 0 1018.8 -1.2 91
2020-03-11 04:00:00 11.2 9 Sur 18 Sur 0 1018.9 -1.3 90
2020-03-11 03:00:00 12 5 Sur 15 Sudoeste 0 1019.5 -0.9 89
2020-03-11 02:00:00 11.6 6 Sur 11 Sur 0 1020 -0.8 91
2020-03-11 01:00:00 11.8 7 Sudoeste 17 Sudoeste 0 1020.2 -0.6 89
2020-03-11 00:00:00 12.6 10 Sudoeste 21 Sudoeste 0 1020.4 -0.3 87
2020-03-10 23:00:00 13 10 Sudoeste 23 Sudoeste 0 1020.8 0.2 86
2020-03-10 22:00:00 13.1 8 Sudoeste 19 Sudoeste 0 1020.8 0.6 83
2020-03-10 21:00:00 13.3 6 Sudoeste 18 Sudoeste 0 1020.7 0.9 79
2020-03-10 20:00:00 13.6 8 Sudoeste 22 Sudoeste 0 1020.6 0.9 77
2020-03-10 19:00:00 14.5 12 Sudoeste 30 Sudoeste 0 1020.2 0 72
2020-03-10 18:00:00 15.4 15 Sudoeste 35 Sudoeste 0 1019.8 -0.9 69
2020-03-10 17:00:00 16.5 15 Sudoeste 32 Sudoeste 0 1019.7 -1.3 61
2020-03-10 16:00:00 18.1 14 Sudoeste 33 Sudoeste 0 1020.2 -1.3 53
2020-03-10 15:00:00 18 14 Sudoeste 34 Sudoeste 0 1020.7 -1.3 53
2020-03-10 14:00:00 18.4 15 Sudoeste 31 Sudoeste 0 1021 -1 50
2020-03-10 13:00:00 17.5 11 Sudoeste 23 Sudoeste 0 1021.5 -0.7 51
2020-03-10 12:00:00 16.7 9 Sudoeste 18 Sur 0 1022 0.4 54
2020-03-10 11:00:00 15.1 8 Sur 17 Sur 0 1022 1.1 61
2020-03-10 10:00:00 13.8 4 Sur 11 Sudoeste 0 1022.2 2.1 66
2020-03-10 09:00:00 11.8 4 Sudoeste 11 Sudoeste 0 1021.6 1.7 77
2020-03-10 08:00:00 9.3 6 Sur 10 Sudoeste 0 1020.9 1.5 84
2020-03-10 07:00:00 8.4 4 Oeste 10 Sur 0 1020.1 1 86
2020-03-10 06:00:00 8.1 4 Sudoeste 12 Sudoeste 0 1019.9 0.8 86
2020-03-10 05:00:00 7.5 2 Noroeste 7 Oeste 0 1019.4 0.2 87
2020-03-10 04:00:00 8.4 4 Oeste 8 Noroeste 0 1019.1 -0.1 82
2020-03-10 03:00:00 10.5 4 Norte 15 Nordeste 0 1019.1 -0.3 74
2020-03-10 02:00:00 10.3 4 Sudoeste 16 Norte 0 1019.2 0.3 84
2020-03-10 01:00:00 10.6 3 Sudoeste 5 Este 0 1019.2 0.5 83
2020-03-10 00:00:00 10.7 3 Oeste 6 Oeste 0 1019.4 1.5 82
2020-03-09 23:00:00 9.9 2 Oeste 5 Noroeste 0 1018.9 1.8 85
2020-03-09 22:00:00 9.9 4 Oeste 8 Noroeste 0 1018.7 2.4 83
2020-03-09 21:00:00 9.7 5 Nordeste 12 Nordeste 0 1017.9 1.8 84
2020-03-09 20:00:00 10.5 3 Norte 10 Este 0 1017.1 1.3 79
2020-03-09 19:00:00 11.8 6 Este 10 Este 0 1016.3 0.5 62
2020-03-09 18:00:00 15.2 5 Sudoeste 27 Noroeste 0 1016.1 0.1 45
2020-03-09 17:00:00 15.8 9 Noroeste 21 Noroeste 0 1015.8 -0.7 46
2020-03-09 16:00:00 14.8 6 Nordeste 14 Este 0 1015.8 -1.4 64
2020-03-09 15:00:00 15.2 7 Este 24 Norte 0 1016 -1 61
2020-03-09 14:00:00 14.1 12 Nordeste 28 Nordeste 0 1016.5 0.1 68
2020-03-09 13:00:00 13.9 16 Nordeste 30 Nordeste 0 1017.2 1.3 72
2020-03-09 12:00:00 16.2 14 Noroeste 41 Noroeste 0 1017 0.8 50
2020-03-09 11:00:00 15.8 19 Noroeste 48 Noroeste 0 1016.4 0.5 50
2020-03-09 10:00:00 16.2 23 Noroeste 41 Noroeste 0 1015.9 0.5 54
2020-03-09 09:00:00 15.5 15 Noroeste 42 Norte 0 1016.2 0.7 52
2020-03-09 08:00:00 13.8 12 Noroeste 27 Noroeste 0 1015.9 0.1 62
2020-03-09 07:00:00 6.9 5 Sudoeste 13 Noroeste 0 1015.4 -0.2 88
2020-03-09 06:00:00 7.1 4 Oeste 11 Oeste 0 1015.5 -0.7 86
2020-03-09 05:00:00 7.6 4 Norte 8 Noroeste 0 1015.8 -0.8 90
2020-03-09 04:00:00 8.6 2 Oeste 12 Noroeste 0 1015.6 -1.2 88
2020-03-09 03:00:00 8.9 0 Calma 4 Norte 0 1016.2 -1.1 90
2020-03-09 02:00:00 9.6 3 Oeste 8 Sur 0 1016.6 -1 88
2020-03-09 01:00:00 10.7 5 Sur 13 Sudoeste 0 1016.8 -1.3 85
2020-03-09 00:00:00 11 7 Sudoeste 12 Sur 0 1017.3 -0.9 82